Time;durP1;ratioP1;P1;durP2;ratioP2;P2;SDS_P1;SDS_P2;PMS_P1;PMS_P2;Temp;Humidity;BMP_temperature;BMP_pressure;BME280_temperature;BME280_humidity;BME280_pressure;Samples;Min_cycle;Max_cycle;Signal;HPM_P1;HPM_P2
2022/11/22 00:00:37;;;;;;;7.50;3.70;;;11.60;78.40;;;-142.21;100.00;112049.66;5071007;28;20442;-73
2022/11/22 00:03:04;;;;;;;4.13;3.53;;;11.70;78.60;;;-142.21;100.00;112049.66;5069854;28;20455;-73
2022/11/22 00:05:32;;;;;;;8.10;3.87;;;11.70;78.50;;;-142.21;100.00;112049.66;5070477;28;20450;-74
2022/11/22 00:07:59;;;;;;;6.57;4.30;;;11.70;78.50;;;-142.21;100.00;112049.66;5070683;28;20485;-74
2022/11/22 00:10:27;;;;;;;6.10;3.97;;;11.70;78.50;;;-142.21;100.00;112049.66;5068874;28;20439;-72
2022/11/22 00:12:55;;;;;;;4.73;3.23;;;11.70;79.40;;;-142.21;100.00;112049.66;5069810;28;20533;-73
2022/11/22 00:15:22;;;;;;;5.37;3.13;;;11.60;78.50;;;-142.21;100.00;112049.66;5070586;28;20519;-73
2022/11/22 00:17:49;;;;;;;6.63;3.17;;;11.50;78.90;;;-142.21;100.00;112049.66;5073666;28;20443;-73
2022/11/22 00:20:16;;;;;;;6.23;3.53;;;11.60;78.80;;;-142.21;100.00;112049.66;5074368;28;20801;-74
2022/11/22 00:22:43;;;;;;;7.83;3.37;;;11.50;78.90;;;-142.21;100.00;112049.66;5073316;28;20471;-73
2022/11/22 00:25:11;;;;;;;4.53;2.47;;;11.50;79.00;;;-142.21;100.00;112049.66;5072742;28;20570;-73
2022/11/22 00:27:39;;;;;;;6.27;2.80;;;11.40;78.80;;;-142.21;100.00;112049.66;5074348;28;20448;-73
2022/11/22 00:30:07;;;;;;;4.97;2.77;;;11.40;79.10;;;-142.21;100.00;112049.66;5073155;28;20447;-74
2022/11/22 00:32:35;;;;;;;5.70;2.90;;;11.40;79.60;;;-142.21;100.00;112049.66;5063873;28;20455;-74
2022/11/22 00:35:02;;;;;;;4.27;2.37;;;11.30;79.70;;;-142.21;100.00;112049.66;5074613;28;20451;-74
2022/11/22 00:37:29;;;;;;;5.17;2.70;;;11.30;80.10;;;-142.21;100.00;112049.66;5073503;28;20458;-74
2022/11/22 00:39:56;;;;;;;4.50;2.10;;;11.20;80.20;;;-142.21;100.00;112049.66;5074072;28;20807;-74
2022/11/22 00:42:23;;;;;;;3.43;2.20;;;11.20;80.40;;;-142.21;100.00;112049.66;5072257;28;20453;-75
2022/11/22 00:44:51;;;;;;;3.90;2.37;;;11.30;80.50;;;-142.21;100.00;112049.66;5073652;28;20482;-74
2022/11/22 00:47:18;;;;;;;3.57;2.20;;;11.40;80.60;;;-142.21;100.00;112049.66;5073440;28;20458;-75
2022/11/22 00:49:46;;;;;;;3.43;2.63;;;11.40;80.40;;;-142.21;100.00;112049.66;5073605;28;20449;-75
2022/11/22 00:52:13;;;;;;;4.50;2.47;;;11.30;80.50;;;-142.21;100.00;112049.66;5072572;28;20447;-74
2022/11/22 00:54:40;;;;;;;4.40;2.80;;;11.30;80.50;;;-142.21;100.00;112049.66;5073522;28;20443;-74
2022/11/22 00:57:07;;;;;;;5.37;1.97;;;11.30;80.70;;;-142.21;100.00;112049.66;5073579;28;20535;-74
2022/11/22 00:59:34;;;;;;;4.13;2.40;;;11.30;81.00;;;-142.21;100.00;112049.66;5073136;28;20489;-74
2022/11/22 01:02:03;;;;;;;3.37;2.40;;;11.30;81.10;;;-142.21;100.00;112049.66;5072869;28;20451;-74
2022/11/22 01:04:30;;;;;;;4.60;2.30;;;11.40;81.10;;;-142.21;100.00;112049.66;5072511;28;20489;-74
2022/11/22 01:06:57;;;;;;;3.03;2.17;;;11.40;80.80;;;-142.21;100.00;112049.66;5073401;28;20543;-75
2022/11/22 01:09:24;;;;;;;2.70;2.00;;;11.40;80.90;;;-142.21;100.00;112049.66;5073007;28;20447;-74
2022/11/22 01:11:52;;;;;;;3.97;2.27;;;11.50;80.70;;;-142.21;100.00;112049.66;5073786;28;20851;-74
2022/11/22 01:14:20;;;;;;;2.70;2.10;;;11.50;80.70;;;-142.21;100.00;112049.66;5071211;28;20860;-74
2022/11/22 01:16:48;;;;;;;3.57;1.90;;;11.60;80.80;;;-142.21;100.00;112049.66;5073296;28;20443;-74
2022/11/22 01:19:17;;;;;;;3.60;1.90;;;11.60;80.30;;;-142.21;100.00;112049.66;5074340;28;20447;-74
2022/11/22 01:21:44;;;;;;;3.10;2.40;;;11.60;80.30;;;-142.21;100.00;112049.66;5073105;28;20478;-74
2022/11/22 01:24:11;;;;;;;3.73;2.20;;;11.60;80.40;;;-142.21;100.00;112049.66;5072316;28;20484;-74
2022/11/22 01:26:38;;;;;;;3.63;2.27;;;11.60;80.70;;;-142.21;100.00;112049.66;5072695;28;20444;-74
2022/11/22 01:29:06;;;;;;;4.23;2.10;;;11.60;81.60;;;-142.21;100.00;112049.66;5072229;28;20534;-75
2022/11/22 01:31:33;;;;;;;4.67;2.37;;;11.60;80.60;;;-142.21;100.00;112049.66;5072664;28;20468;-76
2022/11/22 01:34:00;;;;;;;3.07;1.97;;;11.70;80.40;;;-142.21;100.00;112049.66;5072397;28;20462;-75
2022/11/22 01:36:29;;;;;;;2.57;1.87;;;11.70;80.50;;;-142.21;100.00;112049.66;5070260;28;20447;-74
2022/11/22 01:38:56;;;;;;;2.90;1.80;;;11.70;80.70;;;-142.21;100.00;112049.66;5073056;28;20467;-75
2022/11/22 01:41:23;;;;;;;3.37;2.00;;;11.70;80.60;;;-142.21;100.00;112049.66;5071813;28;20452;-73
2022/11/22 01:43:50;;;;;;;4.47;1.97;;;11.80;80.70;;;-142.21;100.00;112049.66;5069972;28;20508;-74
2022/11/22 01:46:34;;;;;;;3.33;1.90;;;11.80;80.70;;;-142.21;100.00;112049.66;5069477;28;20483;-74
2022/11/22 01:49:11;;;;;;;3.13;2.00;;;11.80;81.00;;;-142.21;100.00;112049.66;5072613;28;20966;-73
2022/11/22 01:51:46;;;;;;;3.00;1.70;;;11.70;81.00;;;-142.21;100.00;112049.66;5072065;28;20444;-74
2022/11/22 01:54:22;;;;;;;3.77;2.13;;;11.70;81.10;;;-142.21;100.00;112049.66;5072101;28;20492;-74
2022/11/22 01:56:57;;;;;;;2.70;1.90;;;11.80;81.30;;;-142.21;100.00;112049.66;5072510;28;20512;-74
2022/11/22 01:59:30;;;;;;;2.43;1.70;;;11.70;81.40;;;-142.21;100.00;112049.66;5071341;28;20435;-74
2022/11/22 02:01:59;;;;;;;2.80;2.20;;;11.70;81.50;;;-142.21;100.00;112049.66;5052233;28;20451;-74
2022/11/22 02:04:29;;;;;;;2.40;1.83;;;11.80;81.60;;;-142.21;100.00;112049.66;5071072;28;21009;-74
2022/11/22 02:07:08;;;;;;;3.17;1.80;;;11.80;81.90;;;-142.21;100.00;112049.66;5067385;28;20933;-74
2022/11/22 02:09:37;;;;;;;3.90;1.87;;;11.80;81.90;;;-142.21;100.00;112049.66;5069131;28;20432;-74
2022/11/22 02:12:08;;;;;;;5.30;2.27;;;11.80;81.80;;;-142.21;100.00;112049.66;5071934;28;20443;-74
2022/11/22 02:14:38;;;;;;;3.83;1.77;;;11.80;81.50;;;-142.21;100.00;112049.66;5070801;28;20451;-74
2022/11/22 02:17:05;;;;;;;2.93;1.83;;;11.80;81.60;;;-142.21;100.00;112049.66;5072351;28;20451;-74
2022/11/22 02:19:42;;;;;;;2.80;1.67;;;11.70;81.60;;;-142.21;100.00;112049.66;5071568;28;20446;-74
2022/11/22 02:22:25;;;;;;;2.13;1.50;;;11.80;81.50;;;-142.21;100.00;112049.66;5072188;28;20459;-74
2022/11/22 02:24:59;;;;;;;3.87;1.83;;;11.80;81.60;;;-142.21;100.00;112049.66;5066704;28;20482;-74
2022/11/22 02:27:28;;;;;;;3.27;1.70;;;11.80;81.30;;;-142.21;100.00;112049.66;5053325;28;20444;-74
2022/11/22 02:29:55;;;;;;;4.50;1.83;;;11.80;81.40;;;-142.21;100.00;112049.66;5072175;28;20450;-74
2022/11/22 02:32:22;;;;;;;2.73;1.73;;;11.80;81.30;;;-142.21;100.00;112049.66;5071076;28;20928;-74
2022/11/22 02:34:51;;;;;;;3.60;1.70;;;11.80;81.00;;;-142.21;100.00;112049.66;5071243;28;20446;-74
2022/11/22 02:37:25;;;;;;;3.63;1.70;;;11.70;80.90;;;-142.21;100.00;112049.66;5071262;28;20866;-74
2022/11/22 02:39:58;;;;;;;7.87;2.27;;;11.80;81.10;;;-142.21;100.00;112049.66;5071419;28;20782;-74
2022/11/22 02:42:31;;;;;;;4.33;2.03;;;11.80;81.00;;;-142.21;100.00;112049.66;5071135;28;20428;-74
2022/11/22 02:44:58;;;;;;;6.90;2.20;;;11.80;81.80;;;-142.21;100.00;112049.66;5071285;28;20466;-74
2022/11/22 02:47:25;;;;;;;4.60;1.90;;;11.80;80.70;;;-142.21;100.00;112049.66;5071226;28;20447;-74
2022/11/22 02:49:53;;;;;;;3.27;2.23;;;11.80;80.90;;;-142.21;100.00;112049.66;5071566;28;20448;-74
2022/11/22 02:52:20;;;;;;;6.03;1.87;;;11.80;80.70;;;-142.21;100.00;112049.66;5071014;28;20449;-74
2022/11/22 02:54:47;;;;;;;3.93;1.93;;;11.80;80.70;;;-142.21;100.00;112049.66;5035608;28;20446;-73
2022/11/22 02:57:15;;;;;;;5.73;2.00;;;11.80;80.80;;;-142.21;100.00;112049.66;5070615;28;21018;-73
2022/11/22 02:59:43;;;;;;;5.00;2.10;;;11.90;80.70;;;-142.21;100.00;112049.66;5084732;28;20435;-73
2022/11/22 03:02:10;;;;;;;4.87;2.10;;;11.90;80.60;;;-142.21;100.00;112049.66;5084903;28;20462;-73
2022/11/22 03:04:37;;;;;;;5.93;2.27;;;11.80;80.40;;;-142.21;100.00;112049.66;5070633;28;20490;-73
2022/11/22 03:07:04;;;;;;;6.77;2.33;;;11.80;80.20;;;-142.21;100.00;112049.66;5070833;28;20443;-73
2022/11/22 03:09:32;;;;;;;6.90;2.10;;;11.70;80.00;;;-142.21;100.00;112049.66;5070535;28;20466;-73
2022/11/22 03:11:59;;;;;;;4.30;2.00;;;11.70;80.20;;;-142.21;100.00;112049.66;5069665;28;20444;-73
2022/11/22 03:14:26;;;;;;;4.13;2.03;;;11.70;80.00;;;-142.21;100.00;112049.66;5070602;28;20436;-74
2022/11/22 03:16:55;;;;;;;4.30;1.90;;;11.80;80.10;;;-142.21;100.00;112049.66;5071147;28;20451;-73
2022/11/22 03:19:22;;;;;;;4.80;1.97;;;11.70;80.00;;;-142.21;100.00;112049.66;5070777;28;20465;-74
2022/11/22 03:21:49;;;;;;;7.03;2.10;;;11.70;79.70;;;-142.21;100.00;112049.66;5070628;28;20470;-73
2022/11/22 03:24:18;;;;;;;3.57;2.23;;;11.70;79.70;;;-142.21;100.00;112049.66;5070881;28;20490;-74
2022/11/22 03:26:48;;;;;;;4.93;2.13;;;11.70;80.00;;;-142.21;100.00;112049.66;5071762;28;20450;-73
2022/11/22 03:29:15;;;;;;;6.30;2.17;;;11.70;79.50;;;-142.21;100.00;112049.66;5071696;28;20781;-74
2022/11/22 03:31:42;;;;;;;5.50;1.53;;;11.70;79.40;;;-142.21;100.00;112049.66;5069822;28;20814;-74
2022/11/22 03:34:13;;;;;;;7.00;2.60;;;11.70;79.30;;;-142.21;100.00;112049.66;5070940;28;20446;-74
2022/11/22 03:36:40;;;;;;;6.63;2.37;;;11.70;79.20;;;-142.21;100.00;112049.66;5071034;28;20765;-74
2022/11/22 03:39:08;;;;;;;4.97;2.00;;;11.70;79.10;;;-142.21;100.00;112049.66;5070766;28;20530;-74
2022/11/22 03:41:35;;;;;;;4.33;1.93;;;11.60;79.10;;;-142.21;100.00;112049.66;5070314;28;20443;-75
2022/11/22 03:44:02;;;;;;;6.47;2.47;;;11.70;79.20;;;-142.21;100.00;112049.66;5071038;28;20522;-74
2022/11/22 03:46:29;;;;;;;7.17;2.47;;;11.60;78.60;;;-142.21;100.00;112049.66;5070041;28;20478;-75
2022/11/22 03:48:56;;;;;;;5.77;2.70;;;11.60;78.60;;;-142.21;100.00;112049.66;5070974;28;20811;-74
2022/11/22 03:51:26;;;;;;;7.83;2.33;;;11.70;78.30;;;-142.21;100.00;112049.66;5073900;28;20451;-74
2022/11/22 03:53:53;;;;;;;7.93;2.30;;;11.70;78.20;;;-142.21;100.00;112049.66;5069756;28;20447;-75
2022/11/22 03:56:20;;;;;;;6.30;2.37;;;11.70;77.70;;;-142.21;100.00;112049.66;5072901;28;20461;-74
2022/11/22 03:58:47;;;;;;;5.50;2.50;;;11.70;77.60;;;-142.21;100.00;112049.66;5065281;28;20975;-75
2022/11/22 04:01:14;;;;;;;6.20;2.30;;;11.80;77.50;;;-142.21;100.00;112049.66;5074773;28;20453;-75
2022/11/22 04:03:41;;;;;;;5.90;2.33;;;11.70;77.10;;;-142.21;100.00;112049.66;5074137;28;20959;-75
2022/11/22 04:06:08;;;;;;;5.53;2.43;;;11.70;77.10;;;-142.21;100.00;112049.66;5074521;28;20987;-75
2022/11/22 04:08:36;;;;;;;7.53;2.87;;;11.70;77.10;;;-142.21;100.00;112049.66;5069782;28;20455;-75
2022/11/22 04:11:03;;;;;;;8.67;2.80;;;11.70;77.20;;;-142.21;100.00;112049.66;5073632;28;20790;-75
2022/11/22 04:16:12;;;;;;;5.63;1.90;;;11.70;77.10;;;-142.21;100.00;112049.66;5069000;28;20466;-75
2022/11/22 04:18:39;;;;;;;5.23;1.90;;;11.80;77.20;;;-142.21;100.00;112049.66;5051064;28;20444;-75
2022/11/22 04:26:32;;;;;;;6.93;2.40;;;11.60;77.30;;;-142.21;100.00;112049.66;5073903;28;20975;-75
2022/11/22 04:29:00;;;;;;;6.47;2.57;;;11.60;77.40;;;-142.21;100.00;112049.66;5073776;28;20446;-74
2022/11/22 04:34:11;;;;;;;8.53;2.13;;;11.60;77.10;;;-142.21;100.00;112049.66;5075289;28;20472;-74
2022/11/22 04:36:38;;;;;;;8.80;2.50;;;11.50;78.30;;;-142.21;100.00;112049.66;5073344;28;20447;-74
2022/11/22 04:39:07;;;;;;;10.67;2.67;;;11.50;77.30;;;-142.21;100.00;112049.66;5073530;28;20447;-74
2022/11/22 04:41:34;;;;;;;6.47;2.17;;;11.50;78.00;;;-142.21;100.00;112049.66;5073675;28;20447;-74
2022/11/22 04:46:57;;;;;;;6.00;2.70;;;11.40;77.20;;;-142.21;100.00;112049.66;5027610;28;20520;-75
2022/11/22 04:49:24;;;;;;;10.37;3.70;;;11.40;76.70;;;-142.21;100.00;112049.66;5056239;28;20439;-74
2022/11/22 04:54:37;;;;;;;5.53;2.17;;;11.20;76.70;;;-142.21;100.00;112049.66;5073214;28;20938;-74
2022/11/22 04:57:05;;;;;;;4.63;2.20;;;11.20;76.90;;;-142.21;100.00;112049.66;5072842;28;20476;-74
2022/11/22 04:59:32;;;;;;;9.53;2.60;;;11.30;76.70;;;-142.21;100.00;112049.66;5072900;28;20785;-74
2022/11/22 05:01:59;;;;;;;6.47;2.40;;;11.40;76.50;;;-142.21;100.00;112049.66;5072883;28;20562;-73
2022/11/22 05:04:26;;;;;;;8.53;2.63;;;11.50;76.20;;;-142.21;100.00;112049.66;5071671;28;20444;-74
2022/11/22 05:06:55;;;;;;;7.70;2.20;;;11.50;76.10;;;-142.21;100.00;112049.66;5072734;28;20538;-74
2022/11/22 05:09:23;;;;;;;10.03;2.63;;;11.50;76.00;;;-142.21;100.00;112049.66;5073654;28;20451;-74
2022/11/22 05:11:52;;;;;;;7.57;2.30;;;11.50;75.90;;;-142.21;100.00;112049.66;5073343;28;20454;-75
2022/11/22 05:14:19;;;;;;;7.90;2.57;;;11.50;75.90;;;-142.21;100.00;112049.66;5072752;28;20451;-74
2022/11/22 05:16:47;;;;;;;7.03;2.50;;;11.50;75.80;;;-142.21;100.00;112049.66;5072921;28;20436;-75
2022/11/22 05:19:14;;;;;;;5.80;2.20;;;11.50;75.70;;;-142.21;100.00;112049.66;5073366;28;20447;-75
2022/11/22 05:21:41;;;;;;;7.67;2.50;;;11.50;75.70;;;-142.21;100.00;112049.66;5071948;28;20470;-75
2022/11/22 05:24:08;;;;;;;6.27;2.70;;;11.50;75.60;;;-142.21;100.00;112049.66;5073182;28;20475;-75
2022/11/22 05:26:37;;;;;;;6.37;2.27;;;11.50;75.50;;;-142.21;100.00;112049.66;5096490;28;20566;-74
2022/11/22 05:29:08;;;;;;;8.30;2.77;;;11.50;75.40;;;-142.21;100.00;112049.66;5068202;28;20457;-75
2022/11/22 05:31:37;;;;;;;5.93;2.27;;;11.40;75.50;;;-142.21;100.00;112049.66;5037071;28;20452;-74
2022/11/22 05:34:05;;;;;;;5.67;1.93;;;11.40;75.40;;;-142.21;100.00;112049.66;5073053;28;20450;-74
2022/11/22 05:36:34;;;;;;;9.83;5.30;;;11.40;75.50;;;-142.21;100.00;112049.66;5071715;28;20458;-74
2022/11/22 05:39:03;;;;;;;14.03;10.50;;;11.40;75.70;;;-142.21;100.00;112049.66;5072098;28;20443;-72
2022/11/22 05:41:31;;;;;;;13.57;6.53;;;11.30;75.80;;;-142.21;100.00;112049.66;5072374;28;20527;-72
2022/11/22 05:43:58;;;;;;;11.30;5.23;;;11.20;75.90;;;-142.21;100.00;112049.66;5072921;28;20784;-72
2022/11/22 05:46:29;;;;;;;9.37;3.30;;;11.10;77.00;;;-142.21;100.00;112049.66;5071821;28;20519;-72
2022/11/22 05:48:58;;;;;;;9.03;4.70;;;11.10;76.50;;;-142.21;100.00;112049.66;5072554;28;20474;-72
2022/11/22 05:51:30;;;;;;;8.30;3.90;;;11.10;76.50;;;-142.21;100.00;112049.66;5072706;28;20867;-72
2022/11/22 05:53:57;;;;;;;11.23;5.40;;;11.20;76.70;;;-142.21;100.00;112049.66;5070485;28;20442;-73
2022/11/22 05:56:24;;;;;;;11.67;5.33;;;11.10;76.60;;;-142.21;100.00;112049.66;5067640;28;20531;-75
2022/11/22 05:58:53;;;;;;;8.67;3.63;;;11.00;77.00;;;-142.21;100.00;112049.66;5071461;28;20471;-75
2022/11/22 06:01:22;;;;;;;7.50;3.53;;;11.00;77.20;;;-142.21;100.00;112049.66;5072613;28;20482;-74
2022/11/22 06:03:52;;;;;;;5.77;2.50;;;11.00;77.20;;;-142.21;100.00;112049.66;5071610;28;20479;-74
2022/11/22 06:06:20;;;;;;;7.77;3.10;;;11.00;77.30;;;-142.21;100.00;112049.66;5071752;28;20529;-74
2022/11/22 06:08:49;;;;;;;9.07;3.30;;;11.00;77.40;;;-142.21;100.00;112049.66;5071865;28;20833;-74
2022/11/22 06:11:20;;;;;;;5.90;2.17;;;10.90;77.60;;;-142.21;100.00;112049.66;5072449;28;20452;-75
2022/11/22 06:13:52;;;;;;;8.93;4.57;;;10.90;77.90;;;-142.21;100.00;112049.66;5068791;28;20438;-74
2022/11/22 06:16:20;;;;;;;10.63;3.50;;;10.70;77.70;;;-142.21;100.00;112049.66;5070693;28;20515;-74
2022/11/22 06:18:48;;;;;;;9.33;3.57;;;10.60;77.90;;;-142.21;100.00;112049.66;5071092;28;20981;-75
2022/11/22 06:21:19;;;;;;;6.97;4.30;;;10.50;77.90;;;-142.21;100.00;112049.66;5072062;28;20523;-74
2022/11/22 06:23:47;;;;;;;12.07;4.27;;;10.40;77.00;;;-142.21;100.00;112049.66;5056485;28;20476;-74
2022/11/22 06:26:19;;;;;;;7.30;4.63;;;10.40;77.30;;;-142.21;100.00;112049.66;5070920;28;20550;-75
2022/11/22 06:28:48;;;;;;;7.97;4.00;;;10.40;77.40;;;-142.21;100.00;112049.66;5071539;28;20474;-74
2022/11/22 06:31:17;;;;;;;6.77;4.00;;;10.40;76.40;;;-142.21;100.00;112049.66;5036578;28;20439;-74
2022/11/22 06:33:45;;;;;;;7.87;3.90;;;10.40;76.10;;;-142.21;100.00;112049.66;5070373;28;20485;-74
2022/11/22 06:36:17;;;;;;;5.40;3.10;;;10.40;75.80;;;-142.21;99.13;112049.66;5071600;28;20454;-74
2022/11/22 06:38:46;;;;;;;9.93;2.73;;;10.40;75.70;;;-142.21;98.41;112049.66;5070874;28;20509;-74
2022/11/22 06:41:16;;;;;;;6.33;3.33;;;10.40;75.30;;;-142.21;97.72;112049.66;5071252;28;21017;-74
2022/11/22 06:43:47;;;;;;;8.30;4.10;;;10.30;74.90;;;-142.21;98.52;112049.66;5070355;28;20439;-75
2022/11/22 06:46:15;;;;;;;4.87;3.00;;;10.40;75.30;;;-142.21;98.09;112049.66;5071911;28;20503;-74
2022/11/22 06:48:43;;;;;;;6.33;2.90;;;10.40;74.90;;;-142.21;97.21;112049.66;5070744;28;20558;-74
2022/11/22 06:51:17;;;;;;;7.27;3.53;;;10.50;74.30;;;-142.21;97.41;112049.66;5071457;28;20479;-74
2022/11/22 06:53:45;;;;;;;8.67;3.27;;;10.50;74.20;;;-142.21;96.87;112049.66;5061021;28;20441;-74
2022/11/22 06:56:15;;;;;;;6.00;3.70;;;10.50;74.20;;;-142.21;97.56;112049.66;5051438;28;20531;-74
2022/11/22 06:58:42;;;;;;;4.20;2.80;;;10.50;74.20;;;-142.21;97.77;112049.66;5051479;28;20825;-75
2022/11/22 07:01:12;;;;;;;8.87;3.20;;;10.60;74.20;;;-142.21;97.40;112049.66;5053651;28;20476;-75
2022/11/22 07:03:41;;;;;;;9.97;2.73;;;10.60;74.10;;;-142.21;98.58;112049.66;5061084;28;20502;-75
2022/11/22 07:06:12;;;;;;;7.40;2.33;;;10.60;74.40;;;-142.21;99.25;112049.66;5016803;28;20605;-75
2022/11/22 07:08:43;;;;;;;8.13;2.97;;;10.60;74.40;;;-142.21;99.68;112049.66;5050921;28;20464;-75
2022/11/22 07:11:12;;;;;;;5.90;2.53;;;10.70;74.50;;;-142.21;100.00;112049.66;5051423;28;20455;-75
2022/11/22 07:13:40;;;;;;;8.87;3.10;;;10.80;74.50;;;-142.21;100.00;112049.66;5059341;28;20471;-75
2022/11/22 07:16:11;;;;;;;6.53;3.03;;;10.70;74.50;;;-142.21;100.00;112049.66;5070493;28;20497;-75
2022/11/22 07:18:39;;;;;;;8.77;2.40;;;10.70;74.60;;;-142.21;100.00;112049.66;5047532;28;20795;-75
2022/11/22 07:21:09;;;;;;;4.93;2.30;;;10.70;74.80;;;-142.21;100.00;112049.66;5070375;28;20447;-75
2022/11/22 07:23:38;;;;;;;7.30;2.53;;;10.80;75.00;;;-142.21;100.00;112049.66;5069133;28;20475;-75
2022/11/22 07:26:10;;;;;;;4.80;2.20;;;10.90;74.80;;;-142.21;100.00;112049.66;5070714;28;21041;-75
2022/11/22 07:28:38;;;;;;;5.37;2.70;;;11.00;75.00;;;-142.21;100.00;112049.66;5070382;28;20454;-75
2022/11/22 07:31:08;;;;;;;7.50;2.87;;;11.00;75.10;;;-142.21;100.00;112049.66;5071262;28;20475;-75
2022/11/22 07:33:36;;;;;;;6.83;2.40;;;11.10;75.20;;;-142.21;100.00;112049.66;5063876;28;20436;-75
2022/11/22 07:36:06;;;;;;;6.17;2.37;;;11.10;75.20;;;-142.21;100.00;112049.66;5055269;28;20493;-75
2022/11/22 07:38:34;;;;;;;6.33;2.80;;;11.10;75.30;;;-142.21;100.00;112049.66;5070505;28;20453;-76
2022/11/22 07:41:02;;;;;;;6.50;3.37;;;11.10;75.50;;;-142.21;100.00;112049.66;5071173;28;20562;-75
2022/11/22 07:43:31;;;;;;;8.50;2.83;;;11.10;76.00;;;-142.21;100.00;112049.66;5071239;28;20541;-75
2022/11/22 07:45:59;;;;;;;8.27;2.80;;;11.00;76.00;;;-142.21;100.00;112049.66;5061250;28;20532;-75
2022/11/22 07:48:26;;;;;;;9.27;3.57;;;10.90;76.50;;;-142.21;100.00;112049.66;5082559;28;20466;-76
2022/11/22 07:50:53;;;;;;;4.47;2.80;;;11.00;76.70;;;-142.21;100.00;112049.66;5090841;28;20450;-75
2022/11/22 07:53:21;;;;;;;7.50;3.13;;;11.00;76.80;;;-142.21;100.00;112049.66;5091052;28;20468;-75
2022/11/22 07:55:48;;;;;;;6.47;2.93;;;11.00;76.80;;;-142.21;100.00;112049.66;5090905;28;20446;-76
2022/11/22 07:58:15;;;;;;;7.63;2.70;;;10.90;77.30;;;-142.21;100.00;112049.66;5091423;28;20492;-76
2022/11/22 08:00:44;;;;;;;7.80;3.60;;;10.90;77.60;;;-142.21;100.00;112049.66;5090322;28;20447;-75
2022/11/22 08:03:11;;;;;;;6.63;2.93;;;10.90;77.50;;;-142.21;100.00;112049.66;5091422;28;20454;-75
2022/11/22 08:05:38;;;;;;;4.83;2.13;;;10.90;77.50;;;-142.21;100.00;112049.66;5055061;28;20490;-75
2022/11/22 08:08:06;;;;;;;5.40;2.40;;;10.90;77.80;;;-142.21;100.00;112049.66;5090759;28;20928;-75
2022/11/22 08:10:33;;;;;;;7.37;2.73;;;10.90;78.00;;;-142.21;100.00;112049.66;5071981;28;20434;-75
2022/11/22 08:13:04;;;;;;;8.80;3.00;;;10.90;77.60;;;-142.21;100.00;112049.66;5090893;28;20953;-75
2022/11/22 08:15:32;;;;;;;7.50;2.40;;;10.90;78.00;;;-142.21;100.00;112049.66;5091000;28;20449;-75
2022/11/22 08:18:01;;;;;;;8.47;2.53;;;10.90;77.80;;;-142.21;100.00;112049.66;5080977;28;20532;-75
2022/11/22 08:20:28;;;;;;;7.63;2.20;;;11.00;77.80;;;-142.21;100.00;112049.66;5070935;28;20861;-75
2022/11/22 08:22:55;;;;;;;5.10;2.90;;;11.00;77.00;;;-142.21;100.00;112049.66;5069788;28;20463;-75
2022/11/22 08:25:23;;;;;;;6.60;2.70;;;11.00;77.30;;;-142.21;100.00;112049.66;5070358;28;20855;-76
2022/11/22 08:27:50;;;;;;;7.03;2.30;;;11.00;77.50;;;-142.21;100.00;112049.66;5070057;28;20530;-75
2022/11/22 08:30:18;;;;;;;9.10;2.50;;;11.00;77.30;;;-142.21;100.00;112049.66;5070625;28;20497;-75
2022/11/22 08:32:45;;;;;;;7.00;2.60;;;11.00;76.80;;;-142.21;100.00;112049.66;5070448;28;20864;-75
2022/11/22 08:35:14;;;;;;;5.37;2.20;;;11.00;76.90;;;-142.21;100.00;112049.66;5070701;28;20504;-75
2022/11/22 08:37:41;;;;;;;4.93;2.03;;;11.00;76.70;;;-142.21;100.00;112049.66;5072495;28;20504;-75
2022/11/22 08:40:10;;;;;;;5.63;2.00;;;11.10;76.30;;;-142.21;100.00;112049.66;5074045;28;20728;-75
2022/11/22 08:42:37;;;;;;;7.03;2.47;;;11.10;75.70;;;-142.21;100.00;112049.66;5072856;28;20839;-75
2022/11/22 08:45:06;;;;;;;4.90;2.13;;;11.00;75.40;;;-142.21;100.00;112049.66;5073954;28;20475;-75
2022/11/22 08:47:34;;;;;;;4.43;2.97;;;11.20;75.40;;;-142.21;99.81;112049.66;5074117;28;20848;-75
2022/11/22 08:50:01;;;;;;;8.83;2.20;;;11.20;74.80;;;-142.21;99.89;112049.66;5073487;28;20461;-75
2022/11/22 08:52:29;;;;;;;5.93;2.30;;;11.10;75.00;;;-142.21;99.37;112049.66;5073694;28;20455;-75
2022/11/22 08:54:57;;;;;;;6.33;2.30;;;11.20;74.70;;;-142.21;98.16;112049.66;5072837;28;20538;-75
2022/11/22 08:57:25;;;;;;;3.90;2.40;;;11.30;74.20;;;-142.21;98.30;112049.66;5073816;28;20498;-75
2022/11/22 08:59:52;;;;;;;5.53;2.43;;;11.20;74.40;;;-142.21;98.04;112049.66;5073366;28;20535;-75
2022/11/22 09:02:19;;;;;;;7.97;2.33;;;11.20;74.00;;;-142.21;97.71;112049.66;5072425;28;20451;-73
2022/11/22 09:04:46;;;;;;;4.93;2.23;;;11.20;73.60;;;-142.21;98.18;112049.66;5072350;28;20447;-75
2022/11/22 09:07:14;;;;;;;7.87;2.57;;;11.20;74.40;;;-142.21;98.25;112049.66;5073662;28;20548;-75
2022/11/22 09:09:43;;;;;;;5.90;2.63;;;11.30;74.50;;;-142.21;98.69;112049.66;5054171;28;20530;-75
2022/11/22 09:12:10;;;;;;;4.27;2.07;;;11.40;74.80;;;-142.21;97.31;112049.66;5073439;28;20478;-75
2022/11/22 09:14:39;;;;;;;6.17;2.40;;;11.40;73.40;;;-142.21;98.15;112049.66;5071949;28;20443;-75
2022/11/22 09:17:06;;;;;;;6.70;3.00;;;11.40;73.90;;;-142.21;97.79;112049.66;5073026;28;20951;-75
2022/11/22 09:19:33;;;;;;;5.30;2.60;;;11.50;73.80;;;-142.21;97.06;112049.66;5073277;28;20504;-75
2022/11/22 09:22:01;;;;;;;7.83;2.30;;;11.40;73.50;;;-142.21;97.50;112049.66;5073031;28;20562;-75
2022/11/22 09:24:28;;;;;;;6.77;2.43;;;11.40;73.80;;;-142.21;97.18;112049.66;5072610;28;20943;-75
2022/11/22 09:26:56;;;;;;;5.57;2.10;;;11.50;73.80;;;-142.21;96.52;112049.66;5072604;28;21223;-75
2022/11/22 09:29:24;;;;;;;6.63;2.40;;;11.50;73.60;;;-142.21;96.10;112049.66;5072831;28;20451;-75
2022/11/22 09:31:51;;;;;;;5.47;2.20;;;11.60;73.20;;;-142.21;94.27;112049.66;5072512;28;20505;-75
2022/11/22 09:34:18;;;;;;;5.30;2.23;;;11.60;72.30;;;-142.21;94.88;112049.66;5072346;28;20501;-75
2022/11/22 09:36:46;;;;;;;6.67;1.80;;;11.50;72.90;;;-142.21;94.17;112049.66;5071920;28;20496;-75
2022/11/22 09:39:13;;;;;;;5.70;2.27;;;11.60;72.70;;;-142.21;94.09;112049.66;5073086;28;20501;-75
2022/11/22 09:42:24;;;;;;;8.57;2.30;;;11.60;72.20;;;-142.21;94.61;112049.66;5052363;28;20535;-75
2022/11/22 09:45:33;;;;;;;3.50;1.93;;;11.60;72.30;;;-142.21;94.00;112049.66;5050016;28;20472;-75
2022/11/22 09:48:23;;;;;;;4.80;1.80;;;11.70;72.30;;;-142.21;92.58;112049.66;5051904;28;20495;-75
2022/11/22 09:51:03;;;;;;;5.20;2.20;;;11.80;71.30;;;-142.21;92.87;112049.66;5069017;28;20530;-74
2022/11/22 09:53:38;;;;;;;6.83;4.80;;;11.80;71.00;;;-142.21;93.57;112049.66;5072704;28;20807;-75
2022/11/22 09:56:11;;;;;;;4.40;2.00;;;11.80;71.70;;;-142.21;94.47;112049.66;5072269;28;20426;-75
2022/11/22 09:58:47;;;;;;;5.67;1.97;;;11.90;72.50;;;-142.21;93.69;112049.66;5071799;28;20517;-75
2022/11/22 10:01:21;;;;;;;5.33;1.93;;;11.90;71.80;;;-142.21;92.94;112049.66;5072692;28;20433;-75
2022/11/22 10:03:54;;;;;;;4.23;2.27;;;12.00;71.40;;;-142.21;93.36;112049.66;5071616;28;20514;-75
2022/11/22 10:06:27;;;;;;;6.33;2.17;;;12.00;71.10;;;-142.21;91.63;112049.66;5072204;28;20471;-75
2022/11/22 10:09:08;;;;;;;5.73;2.23;;;12.00;70.40;;;-142.21;91.67;112049.66;5071829;28;20469;-75
2022/11/22 10:11:45;;;;;;;3.27;2.03;;;12.00;70.70;;;-142.21;91.52;112049.66;5072429;28;20462;-75
2022/11/22 10:14:30;;;;;;;4.17;1.80;;;12.00;70.40;;;-142.21;89.74;112049.66;5072067;28;20531;-75
2022/11/22 10:17:10;;;;;;;5.27;1.83;;;12.10;69.40;;;-142.21;89.41;112049.66;5071820;28;20463;-74
2022/11/22 10:19:47;;;;;;;5.13;2.07;;;12.10;69.00;;;-142.21;88.88;112049.66;5071341;28;20473;-74